Flight Track Log - Related Links

Times and Time Zones

All times are in EDT time to prevent confusion due to time zone crossing. See the SWA685 flight status page for this flight to view local times or setup timezone preferences in your user account.

Time Position Orientation Groundspeed Altitude Reporting Facility
EDT Latitude Longitude Course Direction KTS MPH feet Rate Location/Type
Sun 03:32:06 PM 37.7253 -122.2503 308° West 149 171 1,300  Level Oakland Center
Sun 03:33:07 PM 37.7647 -122.3144 308° West 198 228 3,800 2,732 Climbing Oakland Center
Sun 03:34:09 PM 37.7200 -122.3653 222° Southwest 242 278 6,900 3,097 Climbing Oakland Center
Sun 03:35:11 PM 37.6531 -122.3889 196° South 243 280 10,200 2,732 Climbing Oakland Center
Sun 03:36:12 PM 37.5661 -122.4197 196° South 317 365 12,500 2,634 Climbing Oakland Center
Sun 03:37:14 PM 37.4725 -122.4297 185° South 356 410 15,600 2,855 Climbing Oakland Center
Sun 03:38:16 PM 37.4056 -122.3336 131° Southeast 368 423 18,400 1,659 Climbing Oakland Center
Sun 03:39:17 PM 37.3347 -122.2358 132° Southeast 376 433 19,000 1,268 Climbing Oakland Center
Sun 03:40:19 PM 37.2639 -122.1394 133° Southeast 377 434 21,000 2,468 Climbing Oakland Center
Sun 03:41:21 PM 37.1764 -122.0194 132° Southeast 386 444 24,100 2,683 Climbing Oakland Center
Sun 03:42:22 PM 37.0997 -121.9147 133° Southeast 404 465 26,500 2,146 Climbing Oakland Center
Sun 03:43:24 PM 37.0197 -121.8058 133° Southeast 424 488 28,500 2,032 Climbing Oakland Center
Sun 03:44:26 PM 36.9361 -121.6956 133° Southeast 435 501 30,700 2,195 Climbing Oakland Center
Sun 03:45:27 PM 36.8539 -121.5842 133° Southeast 436 502 33,000 1,854 Climbing Oakland Center
Sun 03:46:29 PM 36.7711 -121.4739 133° Southeast 437 503 34,500 1,548 Climbing Oakland Center
Sun 03:47:31 PM 36.6864 -121.3589 133° Southeast 446 513 36,200 1,902 Climbing Oakland Center
Sun 03:48:32 PM 36.5858 -121.2225 133° Southeast 449 517 38,400 1,790 Climbing Oakland Center
Sun 03:49:35 PM 36.5042 -121.1114 132° Southeast 443 510 39,900 1,258 Climbing Oakland Center
Sun 03:50:36 PM 36.4217 -121.0017 133° Southeast 437 503 41,000 541 Climbing Oakland Center
Sun 03:51:37 PM 36.3397 -120.8911 133° Southeast 437 503 41,000  Level Oakland Center
Sun 03:52:39 PM 36.2586 -120.7817 133° Southeast 436 502 41,000  Level Oakland Center
Sun 03:53:41 PM 36.1761 -120.6722 133° Southeast 435 501 41,000  Level Oakland Center
Sun 03:54:42 PM 36.0942 -120.5642 133° Southeast 434 499 41,000  Level Oakland Center
Sun 03:55:44 PM 35.9961 -120.4344 133° Southeast 433 498 41,000  Level Oakland Center
Sun 03:56:46 PM 35.9133 -120.3264 133° Southeast 433 498 41,000  Level Oakland Center
Sun 03:57:47 PM 35.8314 -120.2172 133° Southeast 432 497 41,000  Level Oakland Center
Sun 03:58:49 PM 35.7475 -120.1089 134° Southeast 433 498 41,000  Level Oakland Center
Sun 03:59:51 PM 35.6642 -119.9986 133° Southeast 433 498 41,000  Level Oakland Center
Sun 04:00:54 PM 35.5669 -119.9089 143° Southeast 432 497 41,000 -48 Level Los Angeles Center
Sun 04:01:57 PM 35.4678 -119.8219 144° Southeast 432 497 40,900 -768 Descending Los Angeles Center
Sun 04:02:59 PM 35.3675 -119.7364 145° Southeast 433 498 39,400 -1,645 Descending Los Angeles Center
Sun 04:04:01 PM 35.2489 -119.6339 145° Southeast 433 498 37,500 -1,694 Descending Los Angeles Center
Sun 04:05:03 PM 35.1478 -119.5489 145° Southeast 435 501 35,900 -1,597 Descending Los Angeles Center
Sun 04:06:05 PM 35.0467 -119.4606 144° Southeast 443 510 34,200 -2,016 Descending Los Angeles Center
Sun 04:07:08 PM 34.9417 -119.3725 145° Southeast 454 522 31,700 -2,448 Descending Los Angeles Center
Sun 04:08:10 PM 34.8375 -119.2847 145° Southeast 454 522 29,100 -2,468 Descending Los Angeles Center
Sun 04:09:12 PM 34.7400 -119.2025 145° Southeast 433 498 26,600 -2,448 Descending Los Angeles Center
Sun 04:10:15 PM 34.6369 -119.1150 145° Southeast 413 475 24,000 -2,419 Descending Los Angeles Center
Sun 04:11:16 PM 34.5469 -119.0378 145° Southeast 399 459 21,600 -2,293 Descending Los Angeles Center
Sun 04:12:18 PM 34.4603 -118.9661 146° Southeast 379 436 19,300 -2,419 Descending Los Angeles Center
Sun 04:13:20 PM 34.3589 -118.8828 146° Southeast 365 420 16,600 -2,468 Descending Los Angeles Center
Sun 04:14:22 PM 34.2642 -118.8461 162° South 358 412 14,200 -2,160 Descending Los Angeles Center
Sun 04:15:25 PM 34.1719 -118.8128 163° South 348 400 12,100 -1,536 Descending Los Angeles Center
Sun 04:16:27 PM 34.0764 -118.7767 163° South 326 375 11,000 -1,016 Descending Los Angeles Center
Sun 04:17:29 PM 34.0347 -118.7072 126° Southeast 280 322 10,000 -919 Descending Los Angeles Center
Sun 04:18:31 PM 34.0244 -118.6108 97° East 270 311 9,100 -1,210 Descending Los Angeles Center
Sun 04:19:33 PM 34.0164 -118.5178 96° East 279 321 7,500 -1,065 Descending Los Angeles Center
Sun 04:20:35 PM 34.0144 -118.4281 91° East 275 316 6,900 -1,056 Descending Los Angeles Center
Sun 04:21:38 PM 34.0269 -118.3367 81° East 271 312 5,300 -1,056 Descending Los Angeles Center
Sun 04:22:40 PM 34.0317 -118.2517 86° East 261 300 4,700 -774 Descending Los Angeles Center
Sun 04:23:42 PM 33.9778 -118.2383 168° South 231 266 3,700 -1,210 Descending Los Angeles Center
Sun 04:24:44 PM 33.9639 -118.2900 252° West 204 235 2,200 -1,306 Descending Los Angeles Center
Sun 04:25:46 PM 33.9586 -118.3506 264° West 170 196 1,000 -919 Descending Los Angeles Center
Sun 04:26:48 PM 33.9539 -118.3939 263° West 147 169 300 -677 Descending Los Angeles Center
Sun 04:28:00 PM 33.9333 -118.4000 228° Southwest  Level FlightAware Approximate
Sun 04:35:00 PM 33.9425 -118.4081 228° Southwest  Level Estimated

Login

Don't have an account? Register now (free) for customized features, flight alerts, and more!